Time;durP1;ratioP1;P1;durP2;ratioP2;P2;SDS_P1;SDS_P2;PMS_P1;PMS_P2;Temp;Humidity;BMP_temperature;BMP_pressure;BME280_temperature;BME280_humidity;BME280_pressure;Samples;Min_cycle;Max_cycle;Signal;HPM_P1;HPM_P2
2022/06/07 00:02:08;;;;;;;18.92;9.55;;;;;;;11.20;100.00;101028.63;10260584;28;20035;-78
2022/06/07 00:07:09;;;;;;;16.02;9.15;;;;;;;11.15;100.00;101023.06;10260958;28;20040;-78
2022/06/07 00:12:09;;;;;;;17.85;8.75;;;;;;;11.29;100.00;101038.97;10261608;28;20074;-79
2022/06/07 00:17:11;;;;;;;21.17;9.68;;;;;;;11.24;100.00;101021.53;10301881;28;20042;-79
2022/06/07 00:22:12;;;;;;;17.42;8.95;;;;;;;11.19;100.00;101014.03;10300520;28;20082;-79
2022/06/07 00:27:13;;;;;;;21.30;9.48;;;;;;;11.31;100.00;101017.50;10300359;28;20046;-79
2022/06/07 00:32:14;;;;;;;18.60;9.85;;;;;;;11.35;100.00;101017.81;10283205;28;20054;-79
2022/06/07 00:37:15;;;;;;;14.88;9.95;;;;;;;11.29;100.00;101002.31;10283843;28;20046;-79
2022/06/07 00:42:15;;;;;;;20.35;10.50;;;;;;;11.37;100.00;100999.13;10298353;28;20043;-78
2022/06/07 00:47:23;;;;;;;17.73;10.60;;;;;;;11.30;100.00;100970.91;10297867;28;20707;-79
2022/06/07 00:52:25;;;;;;;20.98;12.68;;;;;;;11.40;100.00;100998.59;10266688;28;20034;-78
2022/06/07 00:57:26;;;;;;;23.52;13.45;;;;;;;11.41;100.00;100988.38;10297469;28;20411;-78
2022/06/07 01:02:26;;;;;;;30.50;15.02;;;;;;;11.31;100.00;100978.09;10281427;28;20045;-78
2022/06/07 01:12:46;;;;;;;26.63;15.30;;;;;;;11.46;100.00;100985.69;10297669;28;20046;-78
2022/06/07 01:17:47;;;;;;;24.10;15.75;;;;;;;11.46;100.00;100981.00;10300547;28;20045;-78
2022/06/07 01:22:48;;;;;;;26.55;15.55;;;;;;;11.50;100.00;100967.56;10278454;28;20050;-78
2022/06/07 01:27:48;;;;;;;28.52;16.98;;;;;;;11.51;100.00;100958.19;10275966;28;20047;-78
2022/06/07 01:32:49;;;;;;;23.85;15.75;;;;;;;11.52;100.00;100960.69;10297350;28;20070;-78
2022/06/07 01:37:49;;;;;;;26.25;16.02;;;;;;;11.45;100.00;100943.53;10296690;28;20050;-79
2022/06/07 01:42:51;;;;;;;25.30;16.25;;;;;;;11.51;100.00;100948.00;10241629;28;20042;-79
2022/06/07 01:47:52;;;;;;;33.13;16.92;;;;;;;11.57;100.00;100950.81;10256451;28;20119;-79
2022/06/07 01:52:52;;;;;;;23.50;15.57;;;;;;;11.50;100.00;100932.53;10257898;28;20705;-79
2022/06/07 01:57:52;;;;;;;23.67;15.73;;;;;;;11.62;100.00;100948.13;10295880;28;20535;-77
2022/06/07 02:02:53;;;;;;;21.85;15.23;;;;;;;11.60;100.00;100934.59;10296183;28;20561;-78
2022/06/07 02:07:54;;;;;;;26.30;15.27;;;;;;;11.56;100.00;100918.81;10277422;28;20039;-79
2022/06/07 02:12:54;;;;;;;21.42;13.77;;;;;;;11.37;100.00;100872.31;10295603;28;20046;-78
2022/06/07 02:17:55;;;;;;;20.00;13.18;;;;;;;11.75;100.00;100933.91;10280377;28;20082;-78
2022/06/07 02:22:55;;;;;;;19.50;14.25;;;;;;;11.76;100.00;100924.53;10294499;28;20043;-78
2022/06/07 02:27:56;;;;;;;23.98;14.05;;;;;;;11.66;100.00;100907.91;10294345;28;20047;-78
2022/06/07 02:32:56;;;;;;;21.65;14.73;;;;;;;11.71;100.00;100894.13;10293175;28;20046;-78
2022/06/07 02:37:57;;;;;;;17.05;11.60;;;;;;;11.70;100.00;100901.59;10294566;28;20098;-76
2022/06/07 02:42:57;;;;;;;17.52;12.02;;;;;;;11.76;100.00;100899.72;10285973;28;20035;-77
2022/06/07 02:47:58;;;;;;;19.08;12.57;;;;;;;11.64;100.00;100865.97;10293778;28;20066;-78
2022/06/07 02:52:59;;;;;;;15.57;10.98;;;;;;;11.82;100.00;100887.59;10277515;28;20070;-77
2022/06/07 02:58:00;;;;;;;14.73;9.98;;;;;;;11.69;100.00;100872.34;10278370;28;20184;-78
2022/06/07 03:03:01;;;;;;;20.48;11.23;;;;;;;11.78;100.00;100886.50;10245959;28;20810;-79
2022/06/07 03:08:01;;;;;;;16.65;11.20;;;;;;;11.79;100.00;100877.13;10251586;28;20084;-79
2022/06/07 03:13:01;;;;;;;21.98;13.00;;;;;;;11.81;100.00;100872.16;10253343;28;20071;-79
2022/06/07 03:18:03;;;;;;;19.58;12.98;;;;;;;11.82;100.00;100875.75;10236498;28;20048;-77
2022/06/07 03:23:05;;;;;;;19.30;12.82;;;;;;;11.80;100.00;100870.53;10258528;28;20471;-78
2022/06/07 03:28:06;;;;;;;20.48;13.32;;;;;;;11.84;100.00;100868.88;10244363;28;20043;-77
2022/06/07 03:33:06;;;;;;;20.02;12.70;;;;;;;11.68;100.00;100843.09;10230460;28;20067;-78
2022/06/07 03:38:07;;;;;;;23.38;14.35;;;;;;;11.85;100.00;100867.78;10247782;28;20065;-78
2022/06/07 03:43:07;;;;;;;22.17;13.13;;;;;;;11.87;100.00;100864.78;10299450;28;20042;-77
2022/06/07 03:48:08;;;;;;;20.38;13.15;;;;;;;11.90;100.00;100870.59;10302107;28;20078;-79
2022/06/07 03:53:09;;;;;;;21.52;13.75;;;;;;;11.82;100.00;100853.69;10297957;28;20031;-79
2022/06/07 03:58:10;;;;;;;20.73;12.90;;;;;;;11.88;100.00;100860.91;10302491;28;20386;-78
2022/06/07 04:03:11;;;;;;;19.48;12.32;;;;;;;11.84;100.00;100838.53;10284279;28;20061;-79
2022/06/07 04:08:12;;;;;;;19.95;12.10;;;;;;;11.99;100.00;100861.84;10267740;28;20049;-77
2022/06/07 04:13:14;;;;;;;21.30;12.38;;;;;;;12.01;100.00;100862.41;10295639;28;20042;-78
2022/06/07 04:18:14;;;;;;;22.38;12.80;;;;;;;12.01;100.00;100856.91;10297420;28;20039;-79
2022/06/07 04:23:18;;;;;;;21.80;13.07;;;;;;;11.97;100.00;100853.00;10266209;28;20402;-79
2022/06/07 04:28:19;;;;;;;19.70;12.25;;;;;;;11.88;100.00;100844.34;10283585;28;20055;-78
2022/06/07 04:33:20;;;;;;;21.35;12.73;;;;;;;11.93;100.00;100854.63;10259601;28;20036;-77
2022/06/07 04:38:20;;;;;;;22.00;13.20;;;;;;;12.05;100.00;100871.81;10259327;28;20047;-78
2022/06/07 04:43:21;;;;;;;18.55;12.30;;;;;;;12.05;100.00;100872.69;10279888;28;20046;-78
2022/06/07 04:48:21;;;;;;;21.35;12.57;;;;;;;12.08;100.00;100876.84;10279520;28;20046;-78
2022/06/07 04:53:22;;;;;;;17.77;12.38;;;;;;;12.13;100.00;100870.50;10297944;28;20091;-78
2022/06/07 04:58:22;;;;;;;19.70;13.95;;;;;;;12.06;100.00;100873.50;10300479;28;20054;-79
2022/06/07 05:03:24;;;;;;;26.02;14.75;;;;;;;11.99;100.00;100867.38;10271606;28;20078;-75
2022/06/07 05:08:24;;;;;;;29.13;15.45;;;;;;;11.90;100.00;100881.66;10259615;28;20086;-77
2022/06/07 05:13:24;;;;;;;30.25;16.70;;;;;;;11.83;100.00;100883.78;10260870;28;20039;-80
2022/06/07 05:18:25;;;;;;;25.15;15.55;;;;;;;11.69;100.00;100888.06;10267355;28;20039;-81
2022/06/07 05:23:25;;;;;;;31.10;16.77;;;;;;;11.46;100.00;100878.19;10297792;28;20106;-79
2022/06/07 05:28:26;;;;;;;35.30;19.17;;;;;;;11.48;100.00;100882.34;10264776;28;20046;-79
2022/06/07 05:33:27;;;;;;;35.08;19.10;;;;;;;11.59;100.00;100907.25;10265034;28;20035;-80
2022/06/07 05:38:27;;;;;;;29.23;17.58;;;;;;;11.58;100.00;100900.09;10297565;28;20049;-79
2022/06/07 05:43:28;;;;;;;32.80;19.13;;;;;;;11.59;100.00;100886.03;10279838;28;20046;-79
2022/06/07 05:48:33;;;;;;;32.72;17.45;;;;;;;11.63;100.00;100889.94;10295821;28;20063;-80
2022/06/07 05:53:33;;;;;;;32.08;18.75;;;;;;;11.73;100.00;100897.47;10295935;28;20035;-79
2022/06/07 05:58:34;;;;;;;36.85;21.63;;;;;;;11.59;100.00;100891.53;10296114;28;20043;-79
2022/06/07 06:03:35;;;;;;;38.33;20.92;;;;;;;11.55;100.00;100895.09;10276485;28;20046;-79
2022/06/07 06:13:55;;;;;;;20.02;11.65;;;;;;;11.40;100.00;100926.09;10295038;28;20062;-78
2022/06/07 06:18:57;;;;;;;13.32;9.52;;;;;;;11.36;100.00;100930.44;10295166;28;20039;-78
2022/06/07 06:23:58;;;;;;;14.73;8.25;;;;;;;11.36;100.00;100933.22;10278889;28;20035;-77
2022/06/07 06:28:59;;;;;;;13.38;7.60;;;;;;;11.27;100.00;100930.91;10294673;28;20039;-77
2022/06/07 06:33:59;;;;;;;10.52;6.32;;;;;;;11.13;100.00;100928.81;10295070;28;20046;-77
2022/06/07 06:39:00;;;;;;;10.93;6.88;;;;;;;11.02;100.00;100916.84;10294491;28;20114;-77
2022/06/07 06:44:01;;;;;;;12.13;6.82;;;;;;;11.08;100.00;100930.41;10294171;28;20058;-77
2022/06/07 06:49:03;;;;;;;11.45;5.93;;;;;;;11.08;100.00;100924.91;10293044;28;20427;-77
2022/06/07 06:54:03;;;;;;;15.02;7.28;;;;;;;11.03;100.00;100913.78;10293721;28;20402;-77
2022/06/07 06:59:04;;;;;;;11.82;6.00;;;;;;;11.04;100.00;100923.75;10276059;28;20070;-77
2022/06/07 07:04:17;;;;;;;11.63;6.50;;;;;;;11.18;100.00;100931.59;10293374;28;20066;-78
2022/06/07 07:09:18;;;;;;;12.13;5.90;;;;;;;11.27;100.00;100939.19;10279519;28;20043;-78
2022/06/07 07:14:19;;;;;;;10.82;5.35;;;;;;;11.27;100.00;100938.34;10237483;28;20471;-76
2022/06/07 07:19:21;;;;;;;10.30;5.97;;;;;;;11.30;100.00;100955.19;10237592;28;20047;-77
2022/06/07 07:24:23;;;;;;;14.63;6.78;;;;;;;11.27;100.00;100972.25;10237806;28;20042;-77
2022/06/07 07:29:24;;;;;;;13.88;6.78;;;;;;;11.16;100.00;100964.09;10252005;28;20047;-77
2022/06/07 07:34:24;;;;;;;13.45;8.10;;;;;;;10.85;100.00;100930.63;10277685;28;20470;-78
2022/06/07 07:39:25;;;;;;;12.13;6.85;;;;;;;10.94;100.00;100937.38;10271589;28;20051;-78
2022/06/07 07:44:27;;;;;;;13.68;6.10;;;;;;;11.20;100.00;100976.28;10261945;28;20047;-78
2022/06/07 07:49:30;;;;;;;9.77;4.72;;;;;;;11.19;100.00;100991.16;10291768;28;20039;-78
2022/06/07 07:54:30;;;;;;;6.65;3.03;;;;;;;11.13;100.00;100993.00;10256800;28;20082;-77
2022/06/07 07:59:31;;;;;;;7.07;3.20;;;;;;;11.20;100.00;100987.28;10272562;28;20074;-77
2022/06/07 08:04:31;;;;;;;6.85;2.55;;;;;;;11.30;100.00;100992.94;10272729;28;20043;-77
2022/06/07 08:09:32;;;;;;;6.82;3.10;;;;;;;11.20;100.00;100973.53;10277102;28;20039;-79
2022/06/07 08:14:33;;;;;;;10.32;3.53;;;;;;;11.47;100.00;100993.72;10261565;28;20031;-79
2022/06/07 08:19:33;;;;;;;7.35;2.88;;;;;;;11.61;100.00;100985.88;10278790;28;20047;-79
2022/06/07 08:24:34;;;;;;;4.60;2.30;;;;;;;11.76;100.00;100989.88;10280849;28;20052;-79
2022/06/07 08:29:34;;;;;;;8.55;4.50;;;;;;;11.95;100.00;100968.31;10278395;28;20160;-79
2022/06/07 08:39:54;;;;;;;10.50;4.95;;;;;;;12.30;100.00;100992.66;10299496;28;20039;-79
2022/06/07 08:45:11;;;;;;;10.13;4.25;;;;;;;12.57;100.00;101006.41;10300478;28;20254;-78
2022/06/07 08:50:14;;;;;;;10.90;3.63;;;;;;;12.58;100.00;101004.47;10282846;28;20046;-77
2022/06/07 08:55:20;;;;;;;7.88;3.20;;;;;;;12.02;100.00;100905.47;10300612;28;20051;-78
2022/06/07 09:00:26;;;;;;;7.85;2.65;;;;;;;12.48;100.00;100985.88;10283313;28;20098;-77
2022/06/07 09:05:26;;;;;;;16.73;2.92;;;;;;;12.53;100.00;100999.75;10298680;28;20135;-79
2022/06/07 09:15:52;;;;;;;11.05;3.30;;;;;;;12.80;100.00;100998.84;10298540;28;20130;-77
2022/06/07 09:21:01;;;;;;;5.40;3.20;;;;;;;13.08;100.00;101012.28;10277478;28;20057;-77
2022/06/07 09:26:22;;;;;;;11.13;3.63;;;;;;;13.36;100.00;101015.75;10295707;28;20035;-78
2022/06/07 09:31:22;;;;;;;11.57;4.28;;;;;;;13.44;100.00;101004.19;10301871;28;20098;-77
2022/06/07 09:36:29;;;;;;;9.23;4.00;;;;;;;13.62;100.00;100993.72;10336370;28;20038;-77
2022/06/07 09:41:37;;;;;;;11.13;4.13;;;;;;;13.85;100.00;101009.00;10257927;28;20051;-77
2022/06/07 09:46:38;;;;;;;7.60;2.63;;;;;;;13.85;100.00;101009.00;10265579;28;20036;-78
2022/06/07 09:51:39;;;;;;;5.85;1.98;;;;;;;13.93;100.00;101011.22;10285430;28;20034;-78
2022/06/07 09:56:42;;;;;;;8.07;2.85;;;;;;;14.02;100.00;101026.22;10288791;28;20036;-77
2022/06/07 10:01:56;;;;;;;6.82;2.38;;;;;;;14.10;100.00;101030.38;10263796;28;20044;-77
2022/06/07 10:06:58;;;;;;;9.70;2.63;;;;;;;14.13;100.00;101010.44;10241622;28;20439;-77
2022/06/07 10:12:30;;;;;;;7.50;2.75;;;;;;;14.35;100.00;101028.75;10255265;28;20035;-77
2022/06/07 10:17:48;;;;;;;9.38;2.70;;;;;;;14.12;100.00;100981.94;10252944;28;20049;-76
2022/06/07 10:23:05;;;;;;;6.50;1.90;;;;;;;14.71;100.00;101024.88;10255859;28;20035;-77
2022/06/07 10:28:15;;;;;;;5.05;1.85;;;;;;;15.05;100.00;101034.56;10257669;28;20051;-77
2022/06/07 10:33:37;;;;;;;6.20;1.00;;;;;;;15.14;100.00;101030.91;10279354;28;20259;-77
2022/06/07 10:38:44;;;;;;;9.38;1.92;;;;;;;15.50;100.00;101033.59;10297232;28;20061;-77
2022/06/07 10:43:47;;;;;;;;;;;;;;;15.56;100.00;101033.56;10279624;28;20057;-77
2022/06/07 10:49:10;;;;;;;5.35;1.10;;;;;;;15.04;100.00;101039.25;10277523;28;19945;-77
2022/06/07 10:54:15;;;;;;;7.38;1.55;;;;;;;14.94;100.00;101036.50;10294263;28;20046;-75
2022/06/07 10:59:21;;;;;;;9.75;1.73;;;;;;;15.36;100.00;101038.09;10294238;28;20130;-77
2022/06/07 11:10:07;;;;;;;6.88;1.40;;;;;;;14.94;100.00;101047.59;10294786;28;20047;-77
2022/06/07 11:15:33;;;;;;;7.40;1.55;;;;;;;15.27;100.00;101061.94;10277625;28;20074;-77
2022/06/07 11:20:34;;;;;;;6.68;1.02;;;;;;;15.17;100.00;101061.97;10294262;28;20039;-77
2022/06/07 11:25:36;;;;;;;4.32;1.65;;;;;;;15.31;100.00;101050.00;10277992;28;20035;-77
2022/06/07 11:30:37;;;;;;;5.40;0.90;;;;;;;15.76;100.00;101058.47;10294537;28;20039;-77
2022/06/07 11:35:44;;;;;;;2.33;0.90;;;;;;;15.93;100.00;101052.56;10294780;28;20039;-77
2022/06/07 11:40:45;;;;;;;;;;;;;;;15.87;100.00;101057.31;10295079;28;20043;-77
2022/06/07 11:45:52;;;;;;;4.20;1.15;;;;;;;15.80;100.00;101054.03;10299990;28;19949;-77
2022/06/07 11:50:57;;;;;;;4.22;1.05;;;;;;;15.77;100.00;101064.84;10300575;28;20038;-76
2022/06/07 11:56:23;;;;;;;3.10;1.02;;;;;;;15.76;100.00;101064.03;10277512;28;20439;-77
2022/06/07 12:01:53;;;;;;;10.88;2.05;;;;;;;15.87;100.00;101065.63;10297972;28;20042;-78
2022/06/07 12:06:56;;;;;;;5.78;1.38;;;;;;;16.08;100.00;101076.63;10301468;28;20459;-78
2022/06/07 12:11:56;;;;;;;6.53;1.40;;;;;;;16.24;100.00;101072.66;10299078;28;20053;-78
2022/06/07 12:16:59;;;;;;;7.05;1.10;;;;;;;16.22;100.00;101055.44;10284216;28;20039;-78
2022/06/07 12:22:06;;;;;;;7.22;1.27;;;;;;;16.55;100.00;101064.09;10283501;28;20043;-77
2022/06/07 12:27:35;;;;;;;6.53;1.33;;;;;;;17.00;100.00;101056.50;10299976;28;20110;-78
2022/06/07 12:32:36;;;;;;;9.27;1.05;;;;;;;16.87;100.00;101062.75;10285271;28;20038;-78
2022/06/07 12:37:37;;;;;;;8.48;1.50;;;;;;;17.09;100.00;101062.25;10298256;28;20043;-78
2022/06/07 12:42:45;;;;;;;4.75;2.03;;;;;;;18.68;100.00;101052.63;10298902;28;20035;-78
2022/06/07 12:47:46;;;;;;;4.20;1.60;;;;;;;18.74;100.00;101043.03;10269972;28;20395;-78
2022/06/07 12:52:53;;;;;;;9.02;1.75;;;;;;;18.41;100.00;101049.75;10242936;28;20039;-88
2022/06/07 12:57:56;;;;;;;4.22;1.27;;;;;;;18.20;100.00;101049.22;10282306;28;20427;-90
2022/06/07 13:03:20;;;;;;;7.88;1.50;;;;;;;18.10;100.00;101025.13;10298754;28;20080;-91
2022/06/07 13:08:23;;;;;;;7.20;1.65;;;;;;;18.99;100.00;101046.53;10284404;28;20073;-89
2022/06/07 13:13:27;;;;;;;7.72;1.73;;;;;;;19.17;100.00;101052.38;10301521;28;20042;-91
2022/06/07 13:18:33;;;;;;;11.05;1.50;;;;;;;18.01;100.00;101054.81;10285205;28;20043;-89
2022/06/07 13:23:38;;;;;;;5.38;1.38;;;;;;;18.14;100.00;101056.81;10305085;28;20035;-89
2022/06/07 13:28:38;;;;;;;6.82;1.17;;;;;;;17.81;100.00;101056.69;10297653;28;20049;-92
2022/06/07 13:33:39;;;;;;;3.33;1.00;;;;;;;17.79;100.00;101060.91;10297253;28;20118;-91
2022/06/07 13:38:39;;;;;;;6.35;1.52;;;;;;;17.66;100.00;101060.50;10283184;28;20037;-90
2022/06/07 13:43:58;;;;;;;6.75;1.70;;;;;;;17.51;100.00;101053.16;10304464;28;20062;-88
2022/06/07 13:54:48;;;;;;;4.95;1.30;;;;;;;16.97;100.00;101062.66;10297202;28;20062;-88
2022/06/07 13:59:49;;;;;;;7.05;1.42;;;;;;;17.12;100.00;101040.25;10299855;28;20051;-89
2022/06/07 14:04:50;;;;;;;7.47;1.33;;;;;;;17.23;100.00;101065.19;10296673;28;20053;-90
2022/06/07 14:09:50;;;;;;;6.10;1.40;;;;;;;17.05;100.00;101053.69;10298789;28;20058;-90
2022/06/07 14:14:51;;;;;;;7.07;1.10;;;;;;;17.14;100.00;101049.13;10266763;28;20039;-90
2022/06/07 14:19:53;;;;;;;4.82;1.23;;;;;;;17.22;100.00;101052.38;10244159;28;20034;-90
2022/06/07 14:24:53;;;;;;;6.85;2.33;;;;;;;17.33;100.00;101051.16;10295838;28;20042;-89
2022/06/07 14:29:54;;;;;;;6.45;1.45;;;;;;;17.35;100.00;101071.16;10296237;28;20039;-89
2022/06/07 14:34:56;;;;;;;4.82;1.50;;;;;;;17.08;100.00;101077.31;10255963;28;20039;-90
2022/06/07 14:39:57;;;;;;;4.82;1.83;;;;;;;17.10;100.00;101066.72;10257711;28;20059;-90
2022/06/07 14:44:57;;;;;;;5.60;1.45;;;;;;;17.29;100.00;101064.81;10288709;28;20046;-90
2022/06/07 14:49:57;;;;;;;4.72;1.48;;;;;;;17.75;100.00;101080.16;10295242;28;20039;-90
2022/06/07 14:54:58;;;;;;;5.78;1.08;;;;;;;17.87;100.00;101063.88;10278812;28;20358;-91
2022/06/07 14:59:58;;;;;;;5.90;1.42;;;;;;;17.30;100.00;101060.09;10296041;28;20066;-83
2022/06/07 15:05:05;;;;;;;3.13;1.08;;;;;;;16.98;100.00;101080.19;10296816;28;20050;-91
2022/06/07 15:10:06;;;;;;;;;;;;;;;16.57;100.00;101074.94;10300588;28;20046;-90
2022/06/07 15:15:07;;;;;;;5.25;2.17;;;;;;;16.50;100.00;101089.16;10295108;28;19922;-90
2022/06/07 15:20:17;;;;;;;5.10;1.42;;;;;;;16.21;100.00;101087.13;10302809;28;20039;-90
2022/06/07 15:25:19;;;;;;;7.80;1.70;;;;;;;16.24;100.00;101083.75;10286290;28;20039;-91
2022/06/07 15:30:19;;;;;;;7.57;2.00;;;;;;;16.42;100.00;101098.09;10285770;28;20450;-93
2022/06/07 15:35:28;;;;;;;6.63;1.80;;;;;;;16.63;100.00;101071.81;10302670;28;20043;-90
2022/06/07 15:40:28;;;;;;;8.95;2.00;;;;;;;16.63;100.00;101065.44;10286475;28;20031;-91
2022/06/07 15:45:34;;;;;;;5.60;2.10;;;;;;;16.38;100.00;101081.19;10285742;28;20053;-90
2022/06/07 15:50:36;;;;;;;6.95;2.85;;;;;;;16.47;100.00;101075.84;10286358;28;20042;-91
2022/06/07 15:55:36;;;;;;;9.68;3.13;;;;;;;16.78;100.00;101072.81;10302419;28;20116;-90
2022/06/07 16:00:37;;;;;;;9.70;3.53;;;;;;;16.65;100.00;101057.63;10300641;28;20099;-91
2022/06/07 16:05:37;;;;;;;7.93;1.83;;;;;;;16.31;100.00;101078.72;10285177;28;20046;-89
2022/06/07 16:10:38;;;;;;;9.38;2.72;;;;;;;16.08;100.00;101059.97;10301189;28;20050;-88
2022/06/07 16:15:39;;;;;;;6.00;1.73;;;;;;;16.00;100.00;101074.47;10286300;28;20073;-94
2022/06/07 16:20:40;;;;;;;6.43;1.80;;;;;;;15.77;100.00;101062.91;10279061;28;20046;-95
2022/06/07 16:25:40;;;;;;;6.50;2.10;;;;;;;15.71;100.00;101089.84;10283740;28;20074;-94
2022/06/07 16:36:11;;;;;;;6.25;1.95;;;;;;;16.30;100.00;101073.44;10269244;28;20035;-93
2022/06/07 16:41:12;;;;;;;5.95;1.73;;;;;;;16.57;100.00;101084.09;10296806;28;20047;-96
2022/06/07 16:46:12;;;;;;;5.00;1.63;;;;;;;16.19;100.00;101083.81;10291308;28;20047;-92
2022/06/07 16:51:13;;;;;;;7.03;1.98;;;;;;;16.13;100.00;101090.50;10287353;28;20055;-93
2022/06/07 16:56:13;;;;;;;6.15;2.30;;;;;;;16.03;100.00;101071.13;10277166;28;20030;-96
2022/06/07 17:01:16;;;;;;;6.45;1.60;;;;;;;16.03;100.00;101091.38;10294096;28;20411;-93
2022/06/07 17:06:20;;;;;;;6.15;1.40;;;;;;;16.30;100.00;101084.56;10290119;28;20062;-96
2022/06/07 17:11:21;;;;;;;7.82;1.52;;;;;;;16.41;100.00;101082.53;10295679;28;20468;-94
2022/06/07 17:16:22;;;;;;;7.35;2.20;;;;;;;16.19;100.00;101080.22;10274228;28;20057;-94
2022/06/07 17:21:24;;;;;;;5.93;2.10;;;;;;;16.11;100.00;101076.06;10295611;28;20039;-91
2022/06/07 17:26:25;;;;;;;7.53;2.38;;;;;;;15.93;100.00;101089.47;10295532;28;20055;-93
2022/06/07 17:31:25;;;;;;;10.15;3.33;;;;;;;15.84;100.00;101088.44;10282630;28;20418;-93
2022/06/07 17:36:26;;;;;;;7.90;2.38;;;;;;;15.86;100.00;101086.19;10293562;28;20079;-93
2022/06/07 17:41:28;;;;;;;5.40;1.63;;;;;;;15.70;100.00;101095.66;10284493;28;20070;-92
2022/06/07 17:46:29;;;;;;;7.95;1.80;;;;;;;15.79;100.00;101099.53;10285346;28;20043;-92
2022/06/07 17:51:30;;;;;;;8.30;2.25;;;;;;;15.48;100.00;101084.91;10286813;28;20045;-91
2022/06/07 17:56:32;;;;;;;6.00;2.42;;;;;;;15.47;100.00;101100.75;10266776;28;20049;-91
2022/06/07 18:01:33;;;;;;;8.65;1.95;;;;;;;15.69;100.00;101103.16;10274534;28;20039;-93
2022/06/07 18:06:33;;;;;;;6.47;2.25;;;;;;;15.59;100.00;101100.44;10285873;28;20042;-93
2022/06/07 18:11:34;;;;;;;4.55;2.08;;;;;;;15.54;100.00;101108.75;10277310;28;20034;-92
2022/06/07 18:16:38;;;;;;;6.28;1.98;;;;;;;15.27;100.00;101084.97;10302638;28;20524;-93
2022/06/07 18:21:39;;;;;;;5.80;1.77;;;;;;;15.13;100.00;101084.72;10282660;28;20106;-93
2022/06/07 18:26:39;;;;;;;6.38;1.70;;;;;;;15.22;100.00;101106.34;10280729;28;20043;-93
2022/06/07 18:31:40;;;;;;;7.95;1.75;;;;;;;15.22;100.00;101104.41;10283387;28;20035;-93
2022/06/07 18:36:43;;;;;;;3.28;1.55;;;;;;;14.75;100.00;101058.44;10284579;28;20043;-93
2022/06/07 18:41:44;;;;;;;7.88;1.77;;;;;;;14.95;100.00;101090.84;10273343;28;20039;-93
2022/06/07 18:46:46;;;;;;;6.00;1.65;;;;;;;14.94;100.00;101103.03;10297401;28;20480;-93
2022/06/07 18:51:47;;;;;;;7.97;1.67;;;;;;;14.80;100.00;101085.31;10300346;28;20027;-92
2022/06/07 18:56:47;;;;;;;5.50;2.08;;;;;;;14.71;100.00;101094.16;10289969;28;20031;-92
2022/06/07 19:01:49;;;;;;;3.58;1.67;;;;;;;14.67;100.00;101084.75;10298015;28;20047;-92
2022/06/07 19:06:49;;;;;;;5.72;1.65;;;;;;;14.60;100.00;101086.97;10285557;28;20066;-93
2022/06/07 19:11:50;;;;;;;7.13;1.85;;;;;;;14.56;100.00;101094.19;10279852;28;20130;-91
2022/06/07 19:16:51;;;;;;;12.35;1.85;;;;;;;14.46;100.00;101102.44;10285983;28;20047;-92
2022/06/07 19:21:52;;;;;;;4.40;1.45;;;;;;;14.21;100.00;101111.53;10281832;28;20055;-91
2022/06/07 19:26:55;;;;;;;6.15;1.83;;;;;;;13.87;100.00;101096.22;10288322;28;20031;-82
2022/06/07 19:31:56;;;;;;;12.63;2.05;;;;;;;13.72;100.00;101115.50;10292352;28;20035;-93
2022/06/07 19:36:57;;;;;;;6.30;2.10;;;;;;;13.53;100.00;101124.25;10311269;28;20063;-94
2022/06/07 19:41:57;;;;;;;6.00;2.42;;;;;;;13.30;100.00;101119.16;10294622;28;20045;-90
2022/06/07 19:46:58;;;;;;;9.48;2.13;;;;;;;13.16;100.00;101134.50;10296837;28;20046;-80
2022/06/07 19:51:59;;;;;;;7.18;2.05;;;;;;;12.97;100.00;101126.63;10295245;28;20043;-95
2022/06/07 19:57:03;;;;;;;7.47;2.88;;;;;;;12.73;100.00;101109.56;10271221;28;20034;-94
2022/06/07 20:02:04;;;;;;;4.93;2.22;;;;;;;12.65;100.00;101126.59;10268896;28;20035;-92
2022/06/07 20:07:05;;;;;;;4.88;2.05;;;;;;;12.32;100.00;101095.38;10261884;28;20036;-93
2022/06/07 20:12:07;;;;;;;4.55;2.00;;;;;;;12.27;100.00;101111.88;10275768;28;20047;-96
2022/06/07 20:17:09;;;;;;;4.85;2.40;;;;;;;11.96;100.00;101088.63;10243217;28;20032;-87
2022/06/07 20:22:12;;;;;;;5.95;2.33;;;;;;;11.94;100.00;101112.88;10250321;28;20063;-88
2022/06/07 20:27:13;;;;;;;9.00;3.05;;;;;;;11.83;100.00;101123.75;10273765;28;20514;-90
2022/06/07 20:32:13;;;;;;;6.47;2.80;;;;;;;11.66;100.00;101126.59;10271821;28;20042;-86
2022/06/07 20:37:16;;;;;;;9.95;3.25;;;;;;;11.58;100.00;101131.72;10260906;28;20043;-90
2022/06/07 20:42:17;;;;;;;10.48;3.47;;;;;;;11.46;100.00;101124.38;10286565;28;20039;-91
2022/06/07 20:47:17;;;;;;;8.38;3.05;;;;;;;11.26;100.00;101110.28;10291171;28;20049;-91
2022/06/07 20:52:18;;;;;;;8.15;3.25;;;;;;;11.22;100.00;101117.41;10294546;28;20050;-92
2022/06/07 20:57:19;;;;;;;10.02;3.60;;;;;;;11.19;100.00;101123.44;10286643;28;20045;-91
2022/06/07 21:02:23;;;;;;;11.02;3.72;;;;;;;11.07;100.00;101120.75;10296923;28;20046;-93
2022/06/07 21:07:24;;;;;;;12.75;3.60;;;;;;;11.01;100.00;101141.88;10269050;28;20053;-93
2022/06/07 21:12:24;;;;;;;7.88;3.78;;;;;;;10.97;100.00;101137.13;10262267;28;20067;-91
2022/06/07 21:17:25;;;;;;;9.32;3.80;;;;;;;10.82;100.00;101121.19;10288639;28;20039;-93
2022/06/07 21:22:25;;;;;;;8.50;4.07;;;;;;;10.70;100.00;101113.00;10268374;28;20087;-91
2022/06/07 21:27:26;;;;;;;10.68;4.72;;;;;;;10.74;100.00;101124.34;10295146;28;20043;-91
2022/06/07 21:32:26;;;;;;;13.65;4.50;;;;;;;10.68;100.00;101120.66;10289923;28;20039;-92
2022/06/07 21:37:27;;;;;;;10.02;5.18;;;;;;;10.64;100.00;101117.56;10293399;28;20043;-91
2022/06/07 21:42:29;;;;;;;8.93;5.47;;;;;;;10.02;100.00;101043.22;10269497;28;20058;-92
2022/06/07 21:47:29;;;;;;;7.28;4.95;;;;;;;10.32;100.00;101086.19;10279372;28;20039;-92
2022/06/07 21:52:30;;;;;;;8.18;4.68;;;;;;;10.40;100.00;101110.56;10270528;28;20034;-93
2022/06/07 21:57:30;;;;;;;9.27;5.65;;;;;;;9.92;100.00;101034.78;10278850;28;20039;-93
2022/06/07 22:02:31;;;;;;;10.63;6.57;;;;;;;10.18;100.00;101089.19;10272158;28;20031;-92
2022/06/07 22:07:31;;;;;;;17.60;6.70;;;;;;;10.13;100.00;101094.63;10301338;28;20089;-92
2022/06/07 22:12:32;;;;;;;16.05;7.07;;;;;;;10.15;100.00;101108.09;10283919;28;20077;-92
2022/06/07 22:17:33;;;;;;;13.38;6.30;;;;;;;10.08;100.00;101100.84;10273326;28;20039;-93
2022/06/07 22:22:33;;;;;;;9.10;6.15;;;;;;;9.86;100.00;101070.44;10298299;28;20118;-92
2022/06/07 22:27:34;;;;;;;16.90;7.65;;;;;;;9.82;100.00;101073.94;10274919;28;20368;-90
2022/06/07 22:32:35;;;;;;;12.07;7.55;;;;;;;9.81;100.00;101075.84;10293131;28;20218;-93
2022/06/07 22:37:35;;;;;;;12.45;7.05;;;;;;;9.87;100.00;101085.84;10300032;28;20041;-93
2022/06/07 22:42:36;;;;;;;15.68;7.22;;;;;;;9.84;100.00;101078.09;10288144;28;20042;-93
2022/06/07 22:47:37;;;;;;;12.30;7.18;;;;;;;9.78;100.00;101081.84;10292562;28;20307;-93
2022/06/07 22:52:46;;;;;;;9.25;7.20;;;;;;;9.67;100.00;101068.94;10275802;28;20046;-94
2022/06/07 22:57:52;;;;;;;10.57;6.72;;;;;;;9.59;100.00;101061.06;10281813;28;20043;-91
2022/06/07 23:02:57;;;;;;;13.15;7.65;;;;;;;9.59;100.00;101072.06;10275867;28;20044;-92
2022/06/07 23:07:57;;;;;;;14.18;7.40;;;;;;;9.53;100.00;101070.28;10299210;28;20035;-93
2022/06/07 23:12:58;;;;;;;16.08;7.85;;;;;;;9.34;100.00;101053.97;10242468;28;20055;-92
2022/06/07 23:17:58;;;;;;;10.93;7.38;;;;;;;9.40;100.00;101063.97;10269063;28;20039;-91
2022/06/07 23:22:59;;;;;;;15.65;8.68;;;;;;;9.37;100.00;101060.91;10283161;28;20035;-90